CheckWX is a tool to help pilots better visualize weather data.  It is not intended as a substitute for an official pre-flight weather briefing.

15:52:24 UTC

PABA METAR
Barter Island Airport
Barter Island, Alaska, USA
Current

49 mins ago

PABA 071503Z AUTO 27035G43KT 1/4SM +SN FZFG FEW006 OVC019 M16/M18 A2981 RMK AO2 PK WND 27043/1458 P0000 FZRANO TSNO
Observed
Apr-7 @ 15:03 UTC
Wind
  • 270° at 35 KTS
  • Gusting to 43 KTS
Visibility
Flight Rules
LIFR
Conditions
Heavy Snow, Freezing Fog
Cloud Levels
  • Few at 600' AGL
  • Overcast at 1,900' AGL
Temperature
-16°C / 3°F
Dewpoint
-18°C / 0°F
Humidity
85%
Altimeter
29.81" Hg
Pressure
1009.52 hPa
Current Rain
0.01"
Previous

60 mins ago

PABA 071452Z AUTO 27037G44KT M1/4SM +SN FZFG FEW011 OVC019 M16/M18 A2980 RMK AO2 PK WND 27048/1359 SLP100 P0000 60000 T11611178 53006 FZRANO TSNO
Observed
Apr-7 @ 14:52 UTC
Wind
  • 270° at 37 KTS
  • Gusting to 44 KTS
Visibility
Flight Rules
LIFR
Conditions
Heavy Snow, Freezing Fog
Cloud Levels
  • Few at 1,100' AGL
  • Overcast at 1,900' AGL
Temperature
-16°C / 3°F
Dewpoint
-18°C / 0°F
Humidity
85%
Altimeter
29.8" Hg
Pressure
1009.12 hPa
Current Rain
0.01"
Previous

2 hours ago

PABA 071356Z AUTO 27038G44KT M1/4SM +SN FZFG FEW006 BKN015 OVC022 M16/M18 A2979 RMK AO2 PK WND 27044/1354 P0000 FZRANO TSNO
Observed
Apr-7 @ 13:56 UTC
Wind
  • 270° at 38 KTS
  • Gusting to 44 KTS
Visibility
Flight Rules
LIFR
Conditions
Heavy Snow, Freezing Fog
Cloud Levels
  • Few at 600' AGL
  • Broken at 1,500' AGL
  • Overcast at 2,200' AGL
Temperature
-16°C / 3°F
Dewpoint
-18°C / 0°F
Humidity
85%
Altimeter
29.79" Hg
Pressure
1008.82 hPa
Current Rain
0.01"